createdAt,value
2022-12-28T00:00:26.851Z,1.20
2022-12-28T00:01:27.018Z,2.30
2022-12-28T00:02:27.017Z,1.60
2022-12-28T00:03:26.981Z,1.80
2022-12-28T00:04:27.061Z,1.70
2022-12-28T00:05:27.124Z,2.00
2022-12-28T00:06:27.227Z,1.30
2022-12-28T00:07:27.521Z,1.50
2022-12-28T00:08:27.329Z,1.20
2022-12-28T00:09:27.417Z,2.30
2022-12-28T00:11:07.812Z,1.70
2022-12-28T00:11:30.536Z,2.10
2022-12-28T00:12:27.602Z,1.40
2022-12-28T00:13:27.657Z,1.00
2022-12-28T00:14:27.987Z,2.90
2022-12-28T00:15:28.051Z,2.00
2022-12-28T00:16:27.876Z,2.30
2022-12-28T00:17:28.169Z,2.60
2022-12-28T00:18:27.997Z,1.40
2022-12-28T00:19:28.069Z,1.80
2022-12-28T00:20:28.119Z,1.60
2022-12-28T00:21:28.228Z,2.20
2022-12-28T00:22:28.496Z,2.00
2022-12-28T00:23:28.348Z,1.90
2022-12-28T00:24:28.665Z,2.00
2022-12-28T00:25:28.493Z,2.60
2022-12-28T00:26:28.544Z,2.10
2022-12-28T00:27:28.643Z,1.90
2022-12-28T00:28:28.665Z,1.70
2022-12-28T00:29:28.791Z,3.70
2022-12-28T00:30:28.807Z,3.90
2022-12-28T00:31:28.952Z,1.80
2022-12-28T00:32:28.940Z,0.80
2022-12-28T00:33:29.020Z,1.30
2022-12-28T00:34:29.122Z,2.40
2022-12-28T00:35:29.157Z,1.80
2022-12-28T00:37:10.917Z,1.60
2022-12-28T00:37:29.323Z,1.70
2022-12-28T00:38:29.368Z,1.40
2022-12-28T00:39:29.675Z,4.10
2022-12-28T00:40:29.495Z,1.70
2022-12-28T00:41:29.565Z,1.20
2022-12-28T00:42:29.630Z,1.30
2022-12-28T00:43:29.717Z,2.40
2022-12-28T00:44:29.773Z,2.00
2022-12-28T00:45:29.916Z,1.80
2022-12-28T00:46:29.879Z,2.10
2022-12-28T00:47:29.994Z,1.40
2022-12-28T00:48:30.007Z,2.00
2022-12-28T00:49:30.204Z,1.80
2022-12-28T00:50:30.129Z,2.70
2022-12-28T00:51:30.475Z,1.10
2022-12-28T00:52:30.256Z,2.20
2022-12-28T00:53:30.344Z,1.00
2022-12-28T00:54:30.384Z,1.10
2022-12-28T00:55:30.734Z,1.00
2022-12-28T00:56:30.539Z,3.00
2022-12-28T00:57:30.625Z,3.30
2022-12-28T00:58:30.651Z,0.90
2022-12-28T00:59:30.733Z,2.30
2022-12-28T01:00:30.807Z,1.50
2022-12-28T01:01:31.044Z,2.70
2022-12-28T01:02:30.986Z,1.70
2022-12-28T01:03:31.011Z,1.80
2022-12-28T01:04:31.041Z,1.00
2022-12-28T01:05:31.127Z,1.50
2022-12-28T01:06:31.166Z,1.90
2022-12-28T01:07:31.513Z,2.50
2022-12-28T01:08:31.318Z,2.90
2022-12-28T01:09:31.415Z,1.90
2022-12-28T01:10:31.444Z,2.10
2022-12-28T01:11:31.532Z,1.20
2022-12-28T01:12:37.735Z,1.60
2022-12-28T01:13:31.692Z,2.20
2022-12-28T01:14:31.743Z,1.90
2022-12-28T01:15:31.814Z,1.70
2022-12-28T01:16:32.173Z,1.60
2022-12-28T01:17:31.993Z,2.30
2022-12-28T01:18:32.034Z,3.50
2022-12-28T01:19:32.112Z,1.30
2022-12-28T01:20:32.173Z,1.10
2022-12-28T01:21:32.470Z,0.50
2022-12-28T01:22:32.313Z,1.40
2022-12-28T01:23:32.387Z,1.40
2022-12-28T01:24:32.438Z,0.80
2022-12-28T01:25:32.505Z,0.90
2022-12-28T01:26:32.605Z,1.70
2022-12-28T01:27:32.680Z,2.70
2022-12-28T01:28:32.705Z,2.00
2022-12-28T01:29:33.062Z,2.80
2022-12-28T01:30:32.839Z,1.00
2022-12-28T01:31:33.079Z,1.50
2022-12-28T01:32:32.971Z,2.10
2022-12-28T01:33:33.054Z,2.90
2022-12-28T01:34:33.145Z,1.10
2022-12-28T01:35:33.195Z,1.80
2022-12-28T01:36:33.230Z,1.80
2022-12-28T01:37:33.565Z,2.00
2022-12-28T01:38:33.359Z,0.90
2022-12-28T01:39:33.428Z,1.20
2022-12-28T01:40:33.488Z,1.30
2022-12-28T01:41:33.576Z,1.90
2022-12-28T01:42:33.855Z,2.80
2022-12-28T01:43:33.708Z,1.60
2022-12-28T01:44:33.734Z,1.00
2022-12-28T01:45:33.866Z,1.80
2022-12-28T01:46:33.867Z,2.20
2022-12-28T01:47:34.185Z,2.40
2022-12-28T01:48:34.000Z,1.20
2022-12-28T01:49:34.079Z,1.50
2022-12-28T01:50:34.144Z,1.30
2022-12-28T01:51:34.230Z,2.80
2022-12-28T01:52:34.311Z,1.40
2022-12-28T01:53:34.358Z,3.00
2022-12-28T01:54:34.403Z,2.30
2022-12-28T01:55:34.504Z,1.80
2022-12-28T01:56:34.527Z,1.30
2022-12-28T01:57:34.689Z,1.30
2022-12-28T01:58:34.654Z,1.30
2022-12-28T01:59:34.746Z,1.60
2022-12-28T02:00:35.150Z,1.00
2022-12-28T02:01:34.970Z,1.30
2022-12-28T02:02:35.158Z,5.00
2022-12-28T02:03:35.062Z,2.30
2022-12-28T02:04:35.147Z,1.20
2022-12-28T02:05:35.600Z,2.10
2022-12-28T02:06:35.221Z,2.90
2022-12-28T02:07:35.306Z,1.00
2022-12-28T02:08:35.360Z,1.90
2022-12-28T02:09:35.425Z,1.60
2022-12-28T02:10:40.577Z,1.40
2022-12-28T02:11:35.556Z,1.70
2022-12-28T02:12:35.669Z,2.10
2022-12-28T02:13:35.678Z,1.80
2022-12-28T02:14:35.711Z,1.30
2022-12-28T02:15:35.841Z,0.70
2022-12-28T02:16:35.947Z,1.20
2022-12-28T02:17:35.955Z,2.40
2022-12-28T02:18:36.333Z,1.60
2022-12-28T02:19:36.124Z,2.10
2022-12-28T02:20:36.155Z,1.70
2022-12-28T02:21:36.605Z,1.00
2022-12-28T02:22:36.301Z,1.60
2022-12-28T02:23:36.633Z,1.00
2022-12-28T02:24:36.415Z,2.70
2022-12-28T02:25:36.521Z,1.10
2022-12-28T02:26:36.557Z,1.20
2022-12-28T02:27:36.630Z,1.50
2022-12-28T02:28:36.929Z,1.00
2022-12-28T02:29:36.765Z,0.90
2022-12-28T02:30:36.863Z,1.20
2022-12-28T02:31:36.909Z,1.40
2022-12-28T02:32:36.942Z,1.20
2022-12-28T02:33:37.050Z,2.40
2022-12-28T02:34:37.065Z,0.80
2022-12-28T02:35:37.137Z,0.90
2022-12-28T02:36:37.211Z,1.80
2022-12-28T02:37:38.649Z,0.90
2022-12-28T02:38:37.328Z,0.90
2022-12-28T02:39:37.407Z,1.30
2022-12-28T02:40:37.461Z,1.10
2022-12-28T02:41:37.547Z,1.30
2022-12-28T02:42:37.832Z,0.70
2022-12-28T02:43:37.693Z,0.90
2022-12-28T02:44:37.754Z,1.00
2022-12-28T02:45:38.090Z,4.40
2022-12-28T02:46:38.286Z,1.10
2022-12-28T02:47:37.985Z,0.80
2022-12-28T02:48:38.049Z,0.70
2022-12-28T02:49:38.144Z,1.10
2022-12-28T02:50:38.160Z,1.20
2022-12-28T02:51:38.611Z,0.90
2022-12-28T02:52:38.300Z,1.00
2022-12-28T02:53:38.442Z,1.40
2022-12-28T02:54:38.704Z,0.90
2022-12-28T02:55:38.573Z,0.60
2022-12-28T02:56:38.889Z,0.90
2022-12-28T02:57:38.711Z,0.60
2022-12-28T02:58:38.772Z,1.30
2022-12-28T02:59:38.877Z,2.60
2022-12-28T03:00:39.150Z,2.00
2022-12-28T03:01:39.083Z,0.50
2022-12-28T03:02:39.195Z,0.60
2022-12-28T03:03:39.108Z,1.20
2022-12-28T03:04:39.171Z,1.20
2022-12-28T03:05:39.629Z,0.80
2022-12-28T03:06:39.291Z,1.40
2022-12-28T03:07:39.465Z,1.70
2022-12-28T03:08:39.446Z,0.70
2022-12-28T03:09:39.561Z,0.80
2022-12-28T03:10:39.579Z,1.40
2022-12-28T03:11:39.663Z,0.80
2022-12-28T03:12:39.716Z,1.50
2022-12-28T03:13:39.833Z,1.00
2022-12-28T03:14:39.862Z,1.00
2022-12-28T03:15:40.189Z,1.20
2022-12-28T03:16:39.996Z,1.00
2022-12-28T03:17:40.075Z,1.00
2022-12-28T03:18:40.110Z,0.80
2022-12-28T03:19:40.193Z,1.30
2022-12-28T03:20:40.619Z,1.70
2022-12-28T03:21:40.533Z,1.10
2022-12-28T03:22:40.374Z,0.90
2022-12-28T03:23:40.465Z,1.90
2022-12-28T03:24:40.498Z,0.80
2022-12-28T03:25:40.598Z,1.00
2022-12-28T03:26:40.684Z,2.30
2022-12-28T03:27:40.781Z,0.50
2022-12-28T03:28:41.059Z,1.20
2022-12-28T03:29:40.894Z,0.90
2022-12-28T03:30:40.997Z,1.20
2022-12-28T03:31:41.396Z,1.30
2022-12-28T03:32:41.085Z,0.70
2022-12-28T03:33:41.166Z,0.60
2022-12-28T03:34:41.227Z,1.20
2022-12-28T03:35:41.583Z,2.60
2022-12-28T03:36:41.609Z,0.60
2022-12-28T03:37:41.447Z,1.50
2022-12-28T03:38:41.512Z,0.70
2022-12-28T03:39:41.599Z,0.80
2022-12-28T03:40:41.627Z,1.30
2022-12-28T03:41:41.935Z,1.00
2022-12-28T03:42:41.748Z,1.20
2022-12-28T03:43:41.832Z,1.00
2022-12-28T03:44:41.906Z,0.60
2022-12-28T03:45:46.715Z,0.60
2022-12-28T03:46:42.145Z,0.60
2022-12-28T03:47:42.177Z,1.00
2022-12-28T03:48:42.220Z,1.00
2022-12-28T03:49:42.278Z,0.40
2022-12-28T03:50:42.351Z,0.40
2022-12-28T03:51:42.424Z,1.00
2022-12-28T03:52:42.494Z,1.10
2022-12-28T03:53:42.570Z,1.00
2022-12-28T03:54:42.707Z,0.60
2022-12-28T03:55:42.682Z,1.00
2022-12-28T03:56:43.000Z,0.90
2022-12-28T03:57:42.811Z,0.50
2022-12-28T03:58:42.887Z,0.60
2022-12-28T03:59:42.947Z,0.90
2022-12-28T04:00:43.389Z,1.10
2022-12-28T04:01:43.202Z,0.70
2022-12-28T04:02:43.313Z,1.30
2022-12-28T04:03:43.251Z,0.60
2022-12-28T04:04:43.359Z,1.10
2022-12-28T04:05:43.371Z,0.40
2022-12-28T04:06:43.456Z,1.70
2022-12-28T04:07:43.492Z,1.00
2022-12-28T04:08:43.599Z,0.60
2022-12-28T04:09:43.668Z,0.70
2022-12-28T04:10:43.713Z,1.20
2022-12-28T04:11:44.012Z,0.70
2022-12-28T04:12:43.886Z,0.70
2022-12-28T04:13:43.932Z,1.00
2022-12-28T04:14:43.996Z,1.10
2022-12-28T04:15:44.104Z,0.80
2022-12-28T04:16:44.367Z,1.50
2022-12-28T04:17:44.197Z,1.30
2022-12-28T04:18:44.273Z,0.70
2022-12-28T04:19:44.325Z,0.90
2022-12-28T04:20:44.407Z,1.00
2022-12-28T04:21:44.709Z,0.70
2022-12-28T04:22:44.584Z,0.70
2022-12-28T04:23:44.636Z,1.00
2022-12-28T04:24:44.739Z,0.80
2022-12-28T04:25:44.982Z,0.70
2022-12-28T06:27:09.370Z,0.80
2022-12-28T06:28:10.415Z,0.90
2022-12-28T06:29:10.519Z,1.30
2022-12-28T06:30:10.595Z,0.90
2022-12-28T06:31:10.667Z,1.10
2022-12-28T06:32:10.840Z,1.40
2022-12-28T06:33:10.821Z,14.80
2022-12-28T06:34:10.895Z,2.40
2022-12-28T06:35:11.056Z,0.40
2022-12-28T06:36:16.107Z,0.50
2022-12-28T06:37:11.395Z,0.40
2022-12-28T06:38:11.165Z,0.40
2022-12-28T06:39:11.251Z,1.30
2022-12-28T06:40:11.674Z,0.70
2022-12-28T06:41:14.187Z,0.70
2022-12-28T06:42:11.419Z,0.60
2022-12-28T06:43:11.518Z,3.40
2022-12-28T06:44:11.573Z,0.20
2022-12-28T06:45:11.633Z,0.50
2022-12-28T06:46:11.765Z,1.90
2022-12-28T06:47:11.838Z,0.60
2022-12-28T06:48:11.854Z,0.40
2022-12-28T06:49:11.941Z,0.30
2022-12-28T06:50:12.012Z,0.20
2022-12-28T06:51:12.096Z,0.50
2022-12-28T06:52:12.485Z,0.50
2022-12-28T06:53:12.209Z,1.50
2022-12-28T06:54:12.270Z,0.30
2022-12-28T06:55:12.339Z,0.40
2022-12-28T06:56:12.368Z,0.30
2022-12-28T06:57:12.449Z,2.10
2022-12-28T06:58:12.483Z,0.20
2022-12-28T06:59:12.625Z,2.60
2022-12-28T07:00:12.605Z,0.30
2022-12-28T07:01:12.782Z,1.00
2022-12-28T07:02:12.891Z,0.70
2022-12-28T07:03:12.837Z,0.40
2022-12-28T07:04:12.926Z,0.70
2022-12-28T07:05:12.991Z,0.60
2022-12-28T07:06:13.061Z,1.10
2022-12-28T07:07:13.368Z,1.00
2022-12-28T07:08:13.181Z,0.70
2022-12-28T07:09:13.342Z,0.90
2022-12-28T07:10:13.336Z,0.70
2022-12-28T07:11:13.426Z,0.60
2022-12-28T07:12:13.482Z,1.10
2022-12-28T07:13:13.551Z,0.20
2022-12-28T07:14:13.627Z,1.70
2022-12-28T07:15:13.708Z,0.60
2022-12-28T07:16:13.835Z,1.00
2022-12-28T07:17:13.861Z,0.40
2022-12-28T07:18:13.892Z,1.40
2022-12-28T07:19:13.994Z,1.50
2022-12-28T07:20:14.491Z,0.70
2022-12-28T07:21:14.148Z,1.00
2022-12-28T07:22:14.145Z,0.40
2022-12-28T07:23:14.263Z,0.90
2022-12-28T07:24:14.285Z,0.60
2022-12-28T07:25:14.391Z,0.60
2022-12-28T07:26:14.503Z,1.20
2022-12-28T07:27:14.558Z,0.60
2022-12-28T07:28:14.579Z,1.30
2022-12-28T07:29:14.665Z,1.00
2022-12-28T07:30:14.770Z,3.80
2022-12-28T07:31:14.870Z,2.00
2022-12-28T07:32:14.886Z,1.80
2022-12-28T07:33:14.941Z,0.40
2022-12-28T07:34:15.422Z,3.60
2022-12-28T07:35:15.132Z,1.30
2022-12-28T07:36:15.154Z,0.50
2022-12-28T07:37:15.261Z,0.50
2022-12-28T07:38:20.961Z,1.20
2022-12-28T07:39:15.397Z,1.10
2022-12-28T07:40:15.909Z,0.40
2022-12-28T07:41:15.543Z,2.30
2022-12-28T07:42:15.580Z,2.40
2022-12-28T07:43:16.144Z,1.40
2022-12-28T07:44:15.704Z,1.30
2022-12-28T07:45:15.816Z,1.00
2022-12-28T07:46:15.911Z,1.20
2022-12-28T07:47:15.944Z,1.80
2022-12-28T07:48:16.031Z,1.70
2022-12-28T07:49:16.593Z,3.30
2022-12-28T07:50:16.124Z,2.80
2022-12-28T07:51:16.202Z,3.80
2022-12-28T07:52:16.266Z,4.90
2022-12-28T07:53:21.955Z,4.80
2022-12-28T07:54:16.424Z,0.40
2022-12-28T07:55:16.500Z,1.10
2022-12-28T07:56:16.554Z,4.80
2022-12-28T07:57:16.674Z,3.00
2022-12-28T07:58:16.683Z,1.40
2022-12-28T07:59:17.188Z,4.10
2022-12-28T08:00:16.911Z,2.70
2022-12-28T08:01:17.346Z,1.70
2022-12-28T08:02:17.228Z,4.50
2022-12-28T08:03:17.252Z,3.10
2022-12-28T08:04:17.692Z,2.80
2022-12-28T08:05:17.185Z,2.60
2022-12-28T08:06:17.248Z,2.80
2022-12-28T08:07:17.760Z,0.70
2022-12-28T08:08:17.372Z,1.70
2022-12-28T08:09:17.489Z,1.30
2022-12-28T08:10:17.547Z,0.80
2022-12-28T08:11:17.648Z,5.80
2022-12-28T08:12:17.750Z,3.40
2022-12-28T08:13:17.803Z,1.50
2022-12-28T08:14:17.845Z,2.50
2022-12-28T08:15:17.946Z,0.80
2022-12-28T08:16:18.104Z,0.80
2022-12-28T08:17:21.176Z,0.90
2022-12-28T08:18:18.146Z,0.60
2022-12-28T08:19:18.246Z,2.90
2022-12-28T08:20:18.307Z,1.50
2022-12-28T08:21:18.433Z,1.30
2022-12-28T08:22:18.905Z,1.80
2022-12-28T08:23:18.572Z,2.40
2022-12-28T08:24:18.669Z,2.60
2022-12-28T08:25:18.741Z,3.30
2022-12-28T08:26:18.798Z,6.20
2022-12-28T08:27:18.936Z,1.20
2022-12-28T08:28:18.946Z,4.10
2022-12-28T08:29:19.076Z,9.60
2022-12-28T08:30:19.124Z,2.10
2022-12-28T08:31:19.444Z,7.80
2022-12-28T08:32:19.354Z,3.20
2022-12-28T08:33:19.780Z,6.90
2022-12-28T08:34:19.463Z,6.30
2022-12-28T08:35:19.536Z,2.30
2022-12-28T08:36:19.592Z,3.90
2022-12-28T08:37:20.042Z,4.60
2022-12-28T08:38:20.040Z,4.00
2022-12-28T08:39:19.890Z,1.10
2022-12-28T08:40:19.961Z,3.00
2022-12-28T08:41:20.513Z,3.90
2022-12-28T08:42:20.119Z,2.80
2022-12-28T08:43:20.694Z,4.60
2022-12-28T08:44:20.327Z,1.90
2022-12-28T08:45:20.407Z,1.30
2022-12-28T08:46:20.607Z,4.60
2022-12-28T08:47:20.585Z,3.00
2022-12-28T08:48:20.616Z,1.00
2022-12-28T08:49:21.150Z,2.30
2022-12-28T08:50:23.769Z,2.40
2022-12-28T08:51:20.911Z,6.30
2022-12-28T08:52:20.961Z,0.80
2022-12-28T08:53:21.078Z,3.40
2022-12-28T08:54:21.169Z,1.70
2022-12-28T08:55:21.231Z,5.60
2022-12-28T08:56:21.289Z,2.60
2022-12-28T08:57:21.397Z,0.90
2022-12-28T08:58:21.454Z,2.90
2022-12-28T08:59:22.007Z,3.90
2022-12-28T09:00:21.619Z,2.20
2022-12-28T09:01:21.826Z,3.80
2022-12-28T09:02:22.250Z,1.20
2022-12-28T09:03:21.906Z,2.90
2022-12-28T09:04:21.928Z,1.60
2022-12-28T09:05:22.000Z,6.40
2022-12-28T09:06:22.074Z,1.50
2022-12-28T09:07:22.196Z,2.40
2022-12-28T09:08:22.173Z,4.80
2022-12-28T09:09:22.309Z,3.10
2022-12-28T09:10:22.398Z,2.50
2022-12-28T09:11:22.434Z,3.90
2022-12-28T09:12:22.494Z,1.80
2022-12-28T09:13:22.844Z,4.10
2022-12-28T09:14:24.383Z,2.40
2022-12-28T09:15:22.775Z,4.70
2022-12-28T09:16:22.916Z,1.90
2022-12-28T09:17:23.094Z,1.70
2022-12-28T09:18:22.962Z,3.20
2022-12-28T09:19:23.023Z,1.90
2022-12-28T09:20:23.131Z,1.10
2022-12-28T09:21:23.202Z,2.70
2022-12-28T09:22:23.668Z,0.70
2022-12-28T16:49:32.161Z,2.30
2022-12-28T16:50:33.187Z,1.40
2022-12-28T16:51:33.283Z,0.40
2022-12-28T16:52:33.375Z,2.30
2022-12-28T16:53:33.417Z,0.30
2022-12-28T16:54:33.460Z,0.70
2022-12-28T16:55:33.581Z,0.50
2022-12-28T16:56:33.583Z,0.90
2022-12-28T16:57:33.692Z,2.30
2022-12-28T16:58:33.709Z,0.60
2022-12-28T16:59:33.801Z,1.10
2022-12-28T17:00:33.844Z,0.20
2022-12-28T17:01:33.999Z,0.50
2022-12-28T17:02:34.246Z,1.00
2022-12-28T17:03:34.159Z,1.20
2022-12-28T17:04:34.132Z,0.70
2022-12-28T17:05:34.219Z,0.20
2022-12-28T17:06:34.272Z,2.50
2022-12-28T17:07:34.338Z,1.20
2022-12-28T17:08:34.374Z,0.70
2022-12-28T17:09:34.463Z,0.60
2022-12-28T17:10:34.532Z,0.30
2022-12-28T17:11:34.642Z,1.00
2022-12-28T17:12:34.745Z,0.60
2022-12-28T17:13:34.741Z,0.80
2022-12-28T17:14:37.708Z,2.90
2022-12-28T17:15:34.889Z,1.20
2022-12-28T17:16:35.006Z,0.60
2022-12-28T17:17:35.305Z,0.40
2022-12-28T17:18:35.076Z,0.40
2022-12-28T17:19:35.421Z,0.50
2022-12-28T17:20:35.179Z,0.70
2022-12-28T17:21:35.303Z,0.40
2022-12-28T17:22:35.298Z,1.00
2022-12-28T17:23:35.373Z,0.50
2022-12-28T17:24:35.473Z,1.00
2022-12-28T17:25:35.525Z,0.40
2022-12-28T17:26:35.587Z,0.60
2022-12-28T17:27:35.640Z,0.90
2022-12-28T17:28:35.715Z,0.10
2022-12-28T17:29:36.025Z,0.30
2022-12-28T17:30:35.873Z,0.30
2022-12-28T17:31:36.202Z,0.60
2022-12-28T17:32:35.999Z,1.50
2022-12-28T17:33:39.633Z,0.40
2022-12-28T17:34:36.127Z,0.90
2022-12-28T17:35:36.171Z,1.40
2022-12-28T17:36:36.508Z,5.10
2022-12-28T17:37:36.329Z,1.10
2022-12-28T17:38:36.412Z,0.50
2022-12-28T17:39:40.246Z,0.50
2022-12-28T17:40:36.565Z,0.20
2022-12-28T17:41:37.001Z,8.20
2022-12-28T17:42:37.044Z,1.60
2022-12-28T17:43:36.773Z,4.10
2022-12-28T17:44:36.875Z,0.40
2022-12-28T17:45:36.928Z,1.30
2022-12-28T17:46:37.045Z,1.70
2022-12-28T17:47:37.260Z,0.50
2022-12-28T17:48:37.164Z,1.70
2022-12-28T17:49:37.166Z,3.70
2022-12-28T17:50:37.240Z,0.80
2022-12-28T17:51:37.300Z,0.90
2022-12-28T17:52:37.416Z,1.80
2022-12-28T17:53:37.495Z,5.00
2022-12-28T17:54:37.539Z,0.70
2022-12-28T17:55:37.809Z,1.80
2022-12-28T17:56:37.670Z,1.00
2022-12-28T17:57:38.903Z,0.90
2022-12-28T17:58:37.827Z,0.50
2022-12-28T17:59:37.870Z,3.20
2022-12-28T18:00:38.249Z,1.20
2022-12-28T18:01:38.151Z,0.30
2022-12-28T18:02:38.339Z,0.50
2022-12-28T18:03:38.232Z,2.90
2022-12-28T18:04:38.282Z,0.40
2022-12-28T18:05:38.680Z,0.80
2022-12-28T18:06:38.418Z,1.60
2022-12-28T18:07:38.451Z,0.60
2022-12-28T18:08:38.956Z,1.10
2022-12-28T18:09:38.615Z,1.30
2022-12-28T18:10:38.700Z,0.60
2022-12-28T18:11:38.730Z,0.50
2022-12-28T18:12:38.827Z,1.80
2022-12-28T18:13:38.928Z,0.80
2022-12-28T18:14:38.968Z,0.80
2022-12-28T18:15:39.045Z,0.70
2022-12-28T18:16:39.180Z,0.80
2022-12-28T18:17:39.191Z,4.10
2022-12-28T18:18:39.300Z,1.00
2022-12-28T18:19:39.321Z,1.50
2022-12-28T18:20:39.612Z,1.50
2022-12-28T18:21:39.500Z,0.80
2022-12-28T18:22:39.628Z,1.00
2022-12-28T18:23:39.611Z,2.90
2022-12-28T18:24:39.707Z,0.60
2022-12-28T18:25:39.779Z,2.60
2022-12-28T18:26:39.852Z,1.70
2022-12-28T18:27:39.865Z,1.40
2022-12-28T18:28:40.175Z,0.80
2022-12-28T18:29:40.007Z,0.50
2022-12-28T18:30:40.147Z,0.50
2022-12-28T18:31:40.177Z,2.60
2022-12-28T18:32:40.486Z,0.40
2022-12-28T18:33:40.249Z,2.00
2022-12-28T18:34:40.325Z,1.40
2022-12-28T18:35:40.374Z,1.20
2022-12-28T18:36:40.455Z,6.00
2022-12-28T18:37:40.922Z,1.40
2022-12-28T18:38:40.601Z,0.80
2022-12-28T18:39:40.644Z,1.50
2022-12-28T18:40:40.723Z,3.80
2022-12-28T18:41:40.783Z,4.10
2022-12-28T18:42:40.883Z,3.90
2022-12-28T18:43:41.149Z,3.20
2022-12-28T18:44:41.022Z,7.10
2022-12-28T18:45:41.057Z,43.90
2022-12-28T18:46:41.169Z,9.00
2022-12-28T18:47:41.208Z,7.90
2022-12-28T18:48:41.530Z,6.80
2022-12-28T18:49:46.944Z,9.90
2022-12-28T18:50:41.444Z,9.50
2022-12-28T18:51:41.474Z,17.80
2022-12-28T18:52:41.562Z,10.70
2022-12-28T18:53:41.856Z,13.80
2022-12-28T18:54:41.702Z,13.20
2022-12-28T18:55:45.464Z,36.80
2022-12-28T18:56:41.859Z,13.50
2022-12-28T18:57:41.903Z,11.80
2022-12-28T18:58:42.244Z,17.00
2022-12-28T18:59:42.039Z,13.60
2022-12-28T19:00:42.131Z,25.60
2022-12-28T19:02:42.416Z,20.10
2022-12-28T19:03:42.445Z,14.00
2022-12-28T19:04:42.878Z,16.70
2022-12-28T19:05:42.465Z,18.00
2022-12-28T19:06:42.565Z,16.20
2022-12-28T19:07:48.987Z,13.70
2022-12-28T19:08:42.723Z,17.90
2022-12-28T19:09:42.781Z,17.80
2022-12-28T19:10:42.869Z,15.60
2022-12-28T19:11:42.907Z,16.10
2022-12-28T19:12:42.982Z,12.60
2022-12-28T19:13:43.031Z,13.80
2022-12-28T19:14:43.348Z,13.30
2022-12-28T19:15:43.231Z,15.00
2022-12-28T19:16:43.280Z,13.00
2022-12-28T19:17:43.328Z,13.30
2022-12-28T19:18:43.483Z,13.10
2022-12-28T19:19:43.504Z,16.60
2022-12-28T19:20:43.585Z,15.80
2022-12-28T19:21:43.658Z,12.90
2022-12-28T19:22:43.761Z,10.90
2022-12-28T19:23:43.856Z,12.20
2022-12-28T19:24:43.946Z,13.00
2022-12-28T19:25:44.028Z,18.30
2022-12-28T19:26:44.067Z,13.50
2022-12-28T19:27:44.173Z,18.00
2022-12-28T19:28:44.220Z,16.00
2022-12-28T19:29:44.281Z,13.00
2022-12-28T19:30:44.366Z,13.10
2022-12-28T19:31:44.536Z,12.40
2022-12-28T19:32:44.539Z,13.40
2022-12-28T19:33:44.565Z,10.90
2022-12-28T19:34:44.801Z,10.60
2022-12-28T19:35:44.718Z,14.30
2022-12-28T19:36:44.804Z,12.50
2022-12-28T19:37:44.845Z,13.60
2022-12-28T19:38:44.944Z,14.90
2022-12-28T19:39:45.025Z,13.80
2022-12-28T19:40:45.079Z,9.10
2022-12-28T19:41:45.139Z,11.20
2022-12-28T19:42:45.254Z,16.00
2022-12-28T19:43:45.277Z,11.40
2022-12-28T19:44:45.399Z,11.70
2022-12-28T19:45:45.420Z,10.40
2022-12-28T19:46:45.648Z,10.80
2022-12-28T19:47:45.583Z,15.90
2022-12-28T19:48:45.756Z,13.60
2022-12-28T19:49:45.976Z,12.50
2022-12-28T19:50:45.913Z,13.70
2022-12-28T19:51:45.833Z,11.60
2022-12-28T19:52:45.914Z,11.00
2022-12-28T19:53:47.230Z,12.50
2022-12-28T19:54:46.086Z,9.90
2022-12-28T19:55:46.723Z,12.90
2022-12-28T19:56:46.474Z,12.90
2022-12-28T19:57:46.423Z,12.60
2022-12-28T19:58:46.345Z,13.20
2022-12-28T19:59:46.581Z,12.70
2022-12-28T20:00:46.949Z,17.60
2022-12-28T20:01:46.670Z,9.50
2022-12-28T20:02:46.779Z,19.30
2022-12-28T20:03:46.758Z,13.70
2022-12-28T20:04:46.793Z,18.00
2022-12-28T20:05:46.906Z,15.30
2022-12-28T20:06:47.192Z,14.30
2022-12-28T20:07:47.015Z,15.30
2022-12-28T20:08:47.093Z,12.50
2022-12-28T20:09:47.168Z,12.40
2022-12-28T20:10:47.258Z,12.70
2022-12-28T20:11:47.518Z,13.50
2022-12-28T20:12:47.437Z,8.20
2022-12-28T20:13:47.453Z,8.10
2022-12-28T20:14:47.555Z,10.90
2022-12-28T20:15:47.740Z,14.00
2022-12-28T20:16:48.048Z,12.50
2022-12-28T20:17:47.840Z,10.50
2022-12-28T20:18:47.924Z,10.30
2022-12-28T20:19:47.970Z,12.00
2022-12-28T20:21:17.752Z,8.90
2022-12-28T20:21:48.379Z,12.30
2022-12-28T20:22:48.173Z,10.40
2022-12-28T20:23:48.297Z,14.10
2022-12-28T20:24:48.333Z,14.50
2022-12-28T20:25:48.279Z,9.20
2022-12-28T20:26:48.365Z,9.80
2022-12-28T20:27:48.421Z,8.10
2022-12-28T20:28:48.525Z,9.10
2022-12-28T20:29:48.824Z,12.10
2022-12-28T20:30:48.644Z,10.90
2022-12-28T20:31:48.752Z,11.10
2022-12-28T20:32:48.816Z,8.30
2022-12-28T20:33:48.866Z,10.50
2022-12-28T20:34:49.186Z,13.80
2022-12-28T20:35:49.011Z,10.10
2022-12-28T20:36:49.104Z,7.50
2022-12-28T20:37:49.139Z,9.90
2022-12-28T20:38:49.336Z,9.40
2022-12-28T20:39:49.292Z,9.80
2022-12-28T20:40:49.377Z,12.10
2022-12-28T20:41:49.434Z,8.20
2022-12-28T20:42:49.492Z,11.50
2022-12-28T20:43:49.564Z,9.50
2022-12-28T20:44:49.679Z,5.90
2022-12-28T20:45:54.229Z,8.10
2022-12-28T20:46:49.800Z,8.70
2022-12-28T20:47:49.842Z,8.50
2022-12-28T20:48:49.922Z,12.60
2022-12-28T20:49:50.398Z,10.10
2022-12-28T20:50:50.073Z,9.90
2022-12-28T20:51:50.122Z,10.10
2022-12-28T20:52:50.204Z,11.20
2022-12-28T20:53:50.273Z,10.90
2022-12-28T20:54:50.600Z,7.10
2022-12-28T20:55:50.387Z,8.90
2022-12-28T20:56:54.672Z,10.70
2022-12-28T20:57:50.538Z,7.10
2022-12-28T20:58:50.604Z,8.20
2022-12-28T20:59:50.951Z,7.50
2022-12-28T21:00:50.805Z,6.30
2022-12-28T21:01:50.928Z,9.40
2022-12-28T21:02:50.923Z,7.50
2022-12-28T21:03:51.009Z,9.30
2022-12-28T21:04:51.286Z,6.60
2022-12-28T21:05:51.099Z,8.30
2022-12-28T21:06:51.180Z,7.00
2022-12-28T21:07:51.215Z,9.70
2022-12-28T21:08:51.318Z,7.10
2022-12-28T21:09:51.350Z,9.30
2022-12-28T21:10:51.496Z,7.40
2022-12-28T21:11:51.517Z,7.60
2022-12-28T21:12:51.628Z,7.60
2022-12-28T21:13:51.690Z,8.80
2022-12-28T21:14:51.781Z,11.40
2022-12-28T21:15:52.097Z,9.00
2022-12-28T21:16:51.931Z,5.50
2022-12-28T21:17:51.940Z,17.20
2022-12-28T21:18:52.021Z,9.10
2022-12-28T21:19:52.089Z,8.00
2022-12-28T21:20:52.190Z,7.60
2022-12-28T21:21:52.215Z,7.40
2022-12-28T21:22:52.548Z,10.00
2022-12-28T21:23:52.376Z,11.50
2022-12-28T21:24:52.456Z,7.70
2022-12-28T21:25:52.521Z,9.50
2022-12-28T21:26:52.592Z,8.60
2022-12-28T21:27:52.670Z,6.90
2022-12-28T21:28:52.731Z,7.20
2022-12-28T21:29:52.803Z,10.90
2022-12-28T21:30:52.875Z,15.10
2022-12-28T21:31:53.004Z,8.70
2022-12-28T21:32:53.031Z,6.20
2022-12-28T21:33:53.078Z,6.50
2022-12-28T21:34:53.155Z,8.00
2022-12-28T21:35:53.218Z,5.60
2022-12-28T21:36:53.363Z,6.90
2022-12-28T21:37:53.426Z,5.70
2022-12-28T21:38:53.480Z,6.90
2022-12-28T21:39:53.510Z,6.00
2022-12-28T21:40:53.826Z,12.80
2022-12-28T21:41:53.657Z,6.30
2022-12-28T21:42:53.723Z,5.50
2022-12-28T21:43:53.808Z,8.30
2022-12-28T21:44:53.843Z,6.00
2022-12-28T21:45:58.444Z,4.60
2022-12-28T21:46:53.983Z,4.50
2022-12-28T21:47:54.053Z,7.40
2022-12-28T21:48:54.123Z,6.20
2022-12-28T21:49:54.208Z,4.90
2022-12-28T21:50:54.489Z,10.40
2022-12-28T21:51:54.323Z,8.50
2022-12-28T21:52:54.620Z,6.60
2022-12-28T21:53:54.501Z,4.90
2022-12-28T21:54:54.523Z,4.90
2022-12-28T21:55:54.878Z,4.60
2022-12-28T21:56:54.658Z,4.80
2022-12-28T21:57:54.741Z,5.70
2022-12-28T21:58:55.182Z,5.40
2022-12-28T21:59:54.895Z,4.40
2022-12-28T22:00:54.939Z,8.60
2022-12-28T22:01:55.427Z,4.90
2022-12-28T22:02:55.173Z,4.00
2022-12-28T22:03:55.163Z,4.30
2022-12-28T22:05:00.428Z,5.30
2022-12-28T22:05:55.271Z,6.70
2022-12-28T22:06:56.796Z,4.30
2022-12-28T22:07:55.418Z,8.50
2022-12-28T22:08:55.489Z,7.20
2022-12-28T22:09:55.567Z,5.20
2022-12-28T22:10:56.596Z,3.90
2022-12-28T22:12:02.207Z,5.00
2022-12-28T22:12:55.771Z,7.50
2022-12-28T22:13:55.848Z,3.70
2022-12-28T22:14:55.915Z,3.10
2022-12-28T22:15:56.401Z,4.80
2022-12-28T22:16:56.165Z,4.20
2022-12-28T22:17:56.142Z,4.50
2022-12-28T22:19:03.975Z,5.80
2022-12-28T22:19:56.277Z,4.50
2022-12-28T22:20:56.684Z,3.30
2022-12-28T22:21:56.433Z,4.80
2022-12-28T22:22:56.508Z,2.30
2022-12-28T22:23:56.627Z,3.80
2022-12-28T22:24:56.645Z,4.10
2022-12-28T22:25:56.754Z,5.30
2022-12-28T22:26:56.778Z,4.30
2022-12-28T22:27:56.864Z,3.20
2022-12-28T22:28:56.917Z,4.80
2022-12-28T22:29:57.002Z,4.80
2022-12-28T22:30:57.309Z,3.70
2022-12-28T22:31:57.221Z,7.10
2022-12-28T22:32:57.208Z,3.50
2022-12-28T22:34:01.737Z,4.80
2022-12-28T22:34:57.352Z,2.50
2022-12-28T22:35:57.807Z,4.10
2022-12-28T22:36:57.471Z,5.00
2022-12-28T22:37:57.559Z,4.70
2022-12-28T22:38:57.987Z,3.90
2022-12-28T22:39:57.697Z,3.30
2022-12-28T22:40:57.729Z,3.30
2022-12-28T22:41:57.809Z,4.50
2022-12-28T22:42:57.878Z,4.90